createdAt,value
2018-07-05T02:24:26.669Z,0.00
2018-07-05T02:25:26.660Z,0.00
2018-07-05T02:27:19.603Z,0.00
2018-07-05T02:28:19.626Z,0.00
2018-07-05T02:30:12.537Z,0.00
2018-07-05T02:31:12.523Z,0.00
2018-07-05T02:33:05.455Z,0.00
2018-07-05T02:34:05.464Z,0.00
2018-07-05T02:35:58.409Z,0.00
2018-07-05T02:36:58.400Z,0.00
2018-07-05T02:38:51.322Z,0.00
2018-07-05T02:39:51.339Z,0.00
2018-07-05T02:41:44.296Z,0.00
2018-07-05T02:42:44.284Z,0.00
2018-07-05T02:44:37.237Z,0.00
2018-07-05T02:45:37.231Z,0.00
2018-07-05T02:47:30.174Z,0.00
2018-07-05T02:48:30.174Z,0.00
2018-07-05T02:50:23.121Z,4.00
2018-07-05T02:51:23.115Z,4.00
2018-07-05T02:53:16.129Z,0.00
2018-07-05T02:54:16.078Z,0.00
2018-07-05T02:56:09.016Z,4.00
2018-07-05T02:57:09.010Z,4.00
2018-07-05T02:59:01.941Z,4.00
2018-07-05T03:00:01.977Z,4.00
2018-07-05T03:01:54.907Z,4.00
2018-07-05T03:02:54.901Z,8.00
2018-07-05T03:04:47.911Z,8.00
2018-07-05T03:05:47.846Z,12.00
2018-07-05T03:07:40.801Z,12.00
2018-07-05T03:08:40.791Z,12.00
2018-07-05T03:10:33.741Z,16.00
2018-07-05T03:11:33.741Z,20.00
2018-07-05T03:13:26.664Z,24.00
2018-07-05T03:14:26.704Z,28.00
2018-07-05T03:16:19.675Z,32.00
2018-07-05T03:17:19.657Z,32.00
2018-07-05T03:19:12.593Z,36.00
2018-07-05T03:20:12.605Z,40.00
2018-07-05T03:22:05.559Z,44.00
2018-07-05T03:23:05.576Z,48.00
2018-07-05T03:24:58.484Z,48.00
2018-07-05T03:25:58.517Z,52.00
2018-07-05T03:27:51.451Z,56.00
2018-07-05T03:28:51.443Z,60.00
2018-07-05T03:30:44.391Z,68.00
2018-07-05T03:31:44.387Z,72.00
2018-07-05T03:33:37.320Z,80.00
2018-07-05T03:34:37.338Z,84.00
2018-07-05T03:36:30.288Z,96.00
2018-07-05T03:37:30.313Z,108.00
2018-07-05T03:39:23.210Z,120.00
2018-07-05T03:40:23.224Z,128.00
2018-07-05T03:42:16.171Z,140.00
2018-07-05T03:43:16.169Z,144.00
2018-07-05T03:45:09.096Z,144.00
2018-07-05T03:46:09.123Z,148.00
2018-07-05T03:48:02.068Z,156.00
2018-07-05T03:49:02.057Z,156.00
2018-07-05T03:50:55.030Z,164.00
2018-07-05T03:51:55.009Z,168.00
2018-07-05T03:52:55.029Z,176.00
2018-07-05T03:53:55.049Z,180.00
2018-07-05T03:54:55.073Z,184.00
2018-07-05T03:55:55.096Z,196.00
2018-07-05T03:56:55.115Z,208.00
2018-07-05T03:57:55.136Z,224.00
2018-07-05T03:58:55.181Z,244.00
2018-07-05T03:59:55.181Z,260.00
2018-07-05T04:00:55.200Z,280.00
2018-07-05T04:01:55.222Z,292.00
2018-07-05T04:02:55.245Z,292.00
2018-07-05T04:03:55.268Z,284.00
2018-07-05T04:04:55.292Z,272.00
2018-07-05T04:05:55.320Z,252.00
2018-07-05T04:06:55.330Z,248.00
2018-07-05T04:07:55.350Z,248.00
2018-07-05T04:08:55.391Z,252.00
2018-07-05T04:09:55.398Z,256.00
2018-07-05T04:10:55.417Z,264.00
2018-07-05T04:11:55.440Z,260.00
2018-07-05T04:12:55.462Z,264.00
2018-07-05T04:13:55.481Z,260.00
2018-07-05T04:14:55.507Z,260.00
2018-07-05T04:15:55.568Z,260.00
2018-07-05T04:16:55.567Z,260.00
2018-07-05T04:17:55.569Z,264.00
2018-07-05T04:18:55.609Z,264.00
2018-07-05T04:19:55.614Z,272.00
2018-07-05T04:20:55.639Z,276.00
2018-07-05T04:21:55.657Z,276.00
2018-07-05T04:22:55.680Z,284.00
2018-07-05T04:23:55.706Z,288.00
2018-07-05T04:24:55.724Z,292.00
2018-07-05T04:25:55.745Z,296.00
2018-07-05T04:26:55.767Z,304.00
2018-07-05T04:27:55.790Z,320.00
2018-07-05T04:28:55.817Z,332.00
2018-07-05T04:29:55.832Z,348.00
2018-07-05T04:30:55.857Z,372.00
2018-07-05T04:31:55.878Z,392.00
2018-07-05T04:32:55.898Z,408.00
2018-07-05T04:33:55.920Z,420.00
2018-07-05T04:34:55.946Z,444.00
2018-07-05T04:35:55.967Z,468.00
2018-07-05T04:36:55.986Z,492.00
2018-07-05T04:37:56.007Z,524.00
2018-07-05T04:38:56.035Z,552.00
2018-07-05T04:39:56.054Z,576.00
2018-07-05T04:40:56.090Z,596.00
2018-07-05T04:41:56.095Z,612.00
2018-07-05T04:42:56.123Z,624.00
2018-07-05T04:43:56.143Z,636.00
2018-07-05T04:44:56.162Z,640.00
2018-07-05T04:45:56.189Z,636.00
2018-07-05T04:46:56.217Z,632.00
2018-07-05T04:47:56.282Z,636.00
2018-07-05T04:48:56.250Z,624.00
2018-07-05T04:49:56.317Z,604.00
2018-07-05T04:50:56.293Z,576.00
2018-07-05T04:51:56.319Z,552.00
2018-07-05T04:52:56.339Z,528.00
2018-07-05T04:53:56.368Z,516.00
2018-07-05T04:54:56.381Z,508.00
2018-07-05T04:55:56.421Z,516.00
2018-07-05T04:56:56.428Z,536.00
2018-07-05T04:57:56.448Z,560.00
2018-07-05T04:58:56.476Z,588.00
2018-07-05T04:59:56.494Z,620.00
2018-07-05T05:00:56.526Z,664.00
2018-07-05T05:01:56.561Z,712.00
2018-07-05T05:02:56.558Z,752.00
2018-07-05T05:03:56.580Z,784.00
2018-07-05T05:04:56.603Z,808.00
2018-07-05T05:05:56.625Z,828.00
2018-07-05T05:06:56.649Z,852.00
2018-07-05T05:07:56.671Z,868.00
2018-07-05T05:08:56.692Z,876.00
2018-07-05T05:09:56.713Z,888.00
2018-07-05T05:10:56.735Z,912.00
2018-07-05T05:11:56.759Z,936.00
2018-07-05T05:12:56.792Z,992.00
2018-07-05T05:13:56.802Z,1072.00
2018-07-05T05:14:56.849Z,1208.00
2018-07-05T05:15:56.847Z,1416.00
2018-07-05T05:16:56.871Z,1648.00
2018-07-05T05:17:56.899Z,1928.00
2018-07-05T05:18:56.959Z,2240.00
2018-07-05T05:19:56.936Z,2512.00
2018-07-05T05:20:56.959Z,2840.00
2018-07-05T05:21:56.982Z,3092.00
2018-07-05T05:22:57.032Z,3300.00
2018-07-05T05:23:57.025Z,3480.00
2018-07-05T05:24:57.089Z,3668.00
2018-07-05T05:25:57.069Z,3720.00
2018-07-05T05:26:57.092Z,4012.00
2018-07-05T05:27:57.113Z,4656.00
2018-07-05T05:28:57.136Z,5208.00
2018-07-05T05:29:57.173Z,5424.00
2018-07-05T05:30:57.185Z,5060.00
2018-07-05T05:31:57.210Z,4480.00
2018-07-05T05:32:57.229Z,3748.00
2018-07-05T05:33:57.255Z,3292.00
2018-07-05T05:34:57.278Z,3040.00
2018-07-05T05:35:57.298Z,2888.00
2018-07-05T05:36:57.337Z,2900.00
2018-07-05T05:37:57.341Z,3196.00
2018-07-05T05:38:57.381Z,2924.00
2018-07-05T05:39:57.389Z,2828.00
2018-07-05T05:40:57.409Z,2908.00
2018-07-05T05:41:57.442Z,2748.00
2018-07-05T05:42:57.458Z,2708.00
2018-07-05T05:43:57.479Z,2588.00
2018-07-05T05:44:57.511Z,2512.00
2018-07-05T05:45:57.527Z,2448.00
2018-07-05T05:46:57.558Z,2464.00
2018-07-05T05:47:57.575Z,2564.00
2018-07-05T05:48:57.602Z,2644.00
2018-07-05T05:49:57.628Z,2760.00
2018-07-05T05:50:57.652Z,3020.00
2018-07-05T05:51:57.669Z,3172.00
2018-07-05T05:52:57.689Z,3196.00
2018-07-05T05:53:57.712Z,3316.00
2018-07-05T05:54:57.760Z,3496.00
2018-07-05T05:55:57.768Z,3664.00
2018-07-05T05:56:57.799Z,3880.00
2018-07-05T05:57:57.812Z,4184.00
2018-07-05T05:58:57.837Z,4388.00
2018-07-05T05:59:57.944Z,4592.00
2018-07-05T06:00:57.882Z,4972.00
2018-07-05T06:01:57.919Z,5784.00
2018-07-05T06:02:57.930Z,9640.00
2018-07-05T06:03:57.947Z,10028.00
2018-07-05T06:04:57.985Z,10604.00
2018-07-05T06:05:57.996Z,11048.00
2018-07-05T06:06:58.018Z,10824.00
2018-07-05T06:07:58.154Z,9940.00
2018-07-05T06:08:58.078Z,9704.00
2018-07-05T06:09:58.090Z,9928.00
2018-07-05T06:10:58.119Z,10248.00
2018-07-05T06:11:58.139Z,10940.00
2018-07-05T06:12:58.177Z,12864.00
2018-07-05T06:13:58.183Z,13536.00
2018-07-05T06:14:58.210Z,13632.00
2018-07-05T06:15:58.236Z,13728.00
2018-07-05T06:16:58.260Z,13472.00
2018-07-05T06:17:58.286Z,12768.00
2018-07-05T06:18:58.345Z,12640.00
2018-07-05T06:19:58.336Z,12092.00
2018-07-05T06:20:58.376Z,12112.00
2018-07-05T06:21:58.383Z,11912.00
2018-07-05T06:22:58.413Z,11792.00
2018-07-05T06:23:58.439Z,11572.00
2018-07-05T06:24:58.465Z,12264.00
2018-07-05T06:25:58.491Z,12572.00
2018-07-05T06:26:58.513Z,12536.00
2018-07-05T06:27:58.614Z,13120.00
2018-07-05T06:28:58.587Z,12772.00
2018-07-05T06:29:58.648Z,13024.00
2018-07-05T06:30:58.680Z,12868.00
2018-07-05T06:31:58.698Z,13568.00
2018-07-05T06:32:58.738Z,13952.00
2018-07-05T06:33:58.722Z,13632.00
2018-07-05T06:34:58.729Z,13952.00
2018-07-05T06:35:58.761Z,14080.00
2018-07-05T06:36:58.788Z,13664.00
2018-07-05T06:37:58.815Z,12688.00
2018-07-05T06:38:58.848Z,12316.00
2018-07-05T06:39:58.896Z,10856.00
2018-07-05T06:40:58.926Z,9424.00
2018-07-05T06:41:58.918Z,8492.00
2018-07-05T06:42:58.943Z,9280.00
2018-07-05T06:43:58.995Z,9188.00
2018-07-05T06:44:59.000Z,9952.00
2018-07-05T06:45:59.021Z,10816.00
2018-07-05T06:46:59.061Z,11080.00
2018-07-05T06:47:59.080Z,10412.00
2018-07-05T06:48:59.106Z,11584.00
2018-07-05T06:49:59.138Z,13092.00
2018-07-05T06:50:59.157Z,13536.00
2018-07-05T06:51:59.184Z,13568.00
2018-07-05T06:52:59.233Z,13760.00
2018-07-05T06:53:59.243Z,14336.00
2018-07-05T06:54:59.271Z,13832.00
2018-07-05T06:55:59.291Z,12472.00
2018-07-05T06:56:59.333Z,11704.00
2018-07-05T06:57:59.354Z,11524.00
2018-07-05T06:58:59.392Z,11380.00
2018-07-05T06:59:59.398Z,12544.00
2018-07-05T07:00:59.427Z,12772.00
2018-07-05T07:01:59.455Z,14144.00
2018-07-05T07:02:59.481Z,14336.00
2018-07-05T07:03:59.511Z,13920.00
2018-07-05T07:04:59.543Z,12036.00
2018-07-05T07:05:59.578Z,10400.00
2018-07-05T07:06:59.600Z,8264.00
2018-07-05T07:07:59.664Z,6504.00
2018-07-05T07:08:59.649Z,5528.00
2018-07-05T07:09:59.692Z,5220.00
2018-07-05T07:10:59.706Z,4880.00
2018-07-05T07:11:59.734Z,4912.00
2018-07-05T07:12:59.774Z,4916.00
2018-07-05T07:13:59.821Z,4788.00
2018-07-05T07:14:59.825Z,4616.00
2018-07-05T07:15:59.902Z,4532.00
2018-07-05T07:16:59.875Z,4560.00
2018-07-05T07:17:59.897Z,4696.00
2018-07-05T07:18:59.929Z,4900.00
2018-07-05T07:19:59.965Z,5156.00
2018-07-05T07:20:59.983Z,5332.00
2018-07-05T07:22:00.017Z,5416.00
2018-07-05T07:23:00.045Z,5616.00
2018-07-05T07:24:00.065Z,5212.00
2018-07-05T07:25:00.086Z,5060.00
2018-07-05T07:26:00.134Z,5028.00
2018-07-05T07:27:00.180Z,5356.00
2018-07-05T07:28:00.169Z,5800.00
2018-07-05T07:29:00.202Z,6328.00
2018-07-05T07:30:00.230Z,6896.00
2018-07-05T07:31:00.251Z,7424.00
2018-07-05T07:32:00.354Z,7584.00
2018-07-05T07:33:00.309Z,7628.00
2018-07-05T07:34:00.332Z,7620.00
2018-07-05T07:35:00.385Z,7476.00
2018-07-05T07:36:00.389Z,7192.00
2018-07-05T07:37:00.410Z,6816.00
2018-07-05T07:38:00.431Z,6696.00
2018-07-05T07:39:00.461Z,7336.00
2018-07-05T07:40:00.487Z,7676.00
2018-07-05T07:41:00.516Z,7264.00
2018-07-05T07:42:00.541Z,7576.00
2018-07-05T07:43:00.567Z,8696.00
2018-07-05T07:44:00.595Z,8820.00
2018-07-05T07:45:00.635Z,9224.00
2018-07-05T07:46:00.649Z,9672.00
2018-07-05T07:47:00.672Z,10764.00
2018-07-05T07:48:00.700Z,10980.00
2018-07-05T07:49:00.730Z,11224.00
2018-07-05T07:50:00.755Z,11336.00
2018-07-05T07:51:00.793Z,11420.00
2018-07-05T07:52:00.813Z,11220.00
2018-07-05T07:53:00.838Z,10648.00
2018-07-05T07:54:00.863Z,10128.00
2018-07-05T07:55:00.893Z,9908.00
2018-07-05T07:56:00.941Z,9504.00
2018-07-05T07:57:00.954Z,9016.00
2018-07-05T07:58:00.992Z,8908.00
2018-07-05T07:59:01.002Z,8696.00
2018-07-05T08:00:01.034Z,8580.00
2018-07-05T08:01:01.066Z,8412.00
2018-07-05T08:02:01.082Z,7976.00
2018-07-05T08:03:01.118Z,9048.00
2018-07-05T08:04:01.151Z,9748.00
2018-07-05T08:05:01.168Z,9520.00
2018-07-05T08:06:01.195Z,9500.00
2018-07-05T08:07:01.220Z,9292.00
2018-07-05T08:08:01.265Z,9164.00
2018-07-05T08:09:01.279Z,9328.00
2018-07-05T08:10:01.375Z,9168.00
2018-07-05T08:11:01.335Z,9012.00
2018-07-05T08:12:01.360Z,8676.00
2018-07-05T08:13:01.388Z,7404.00
2018-07-05T08:14:01.417Z,6564.00
2018-07-05T08:15:01.493Z,5612.00
2018-07-05T08:16:01.499Z,5032.00
2018-07-05T08:17:01.511Z,4680.00
2018-07-05T08:18:01.525Z,4456.00
2018-07-05T08:19:01.554Z,4384.00
2018-07-05T08:20:01.580Z,4272.00
2018-07-05T08:21:01.608Z,4296.00
2018-07-05T08:22:01.636Z,4392.00
2018-07-05T08:23:01.662Z,4624.00
2018-07-05T08:24:01.702Z,4796.00
2018-07-05T08:25:01.720Z,4928.00
2018-07-05T08:26:01.743Z,5076.00
2018-07-05T08:27:01.774Z,5316.00
2018-07-05T08:28:01.807Z,5580.00
2018-07-05T08:29:01.828Z,5868.00
2018-07-05T08:30:01.854Z,5932.00
2018-07-05T08:31:01.904Z,6044.00
2018-07-05T08:32:01.911Z,6116.00
2018-07-05T08:33:01.935Z,6196.00
2018-07-05T08:34:01.959Z,6344.00
2018-07-05T08:35:02.019Z,6532.00
2018-07-05T08:36:02.015Z,6748.00
2018-07-05T08:37:02.043Z,6960.00
2018-07-05T08:38:02.071Z,7172.00
2018-07-05T08:39:02.097Z,8228.00
2018-07-05T08:40:02.122Z,8332.00
2018-07-05T08:41:02.149Z,8728.00
2018-07-05T08:42:02.177Z,7912.00
2018-07-05T08:43:02.210Z,7712.00
2018-07-05T08:44:02.228Z,7440.00
2018-07-05T08:45:02.256Z,7356.00
2018-07-05T08:46:02.281Z,7284.00
2018-07-05T08:47:02.311Z,7312.00
2018-07-05T08:48:02.335Z,7544.00
2018-07-05T08:49:02.366Z,7620.00
2018-07-05T08:50:02.393Z,7048.00
2018-07-05T08:51:02.427Z,6992.00
2018-07-05T08:52:02.442Z,6624.00
2018-07-05T08:53:02.471Z,6424.00
2018-07-05T08:55:57.303Z,6944.00
